Time;durP1;ratioP1;P1;durP2;ratioP2;P2;SDS_P1;SDS_P2;PMS_P1;PMS_P2;Temp;Humidity;BMP_temperature;BMP_pressure;BME280_temperature;BME280_humidity;BME280_pressure;Samples;Min_cycle;Max_cycle;Signal;HPM_P1;HPM_P2
2022/09/03 00:00:18;;;;;;;9.90;5.30;;;;;;;8.93;62.87;100879.05;1596384;89;27370;-69
2022/09/03 00:03:07;;;;;;;8.78;4.97;;;;;;;8.87;63.13;100884.22;1603711;89;25672;-69
2022/09/03 00:05:44;;;;;;;9.18;4.47;;;;;;;8.83;62.64;100877.79;1603958;89;25590;-70
2022/09/03 00:08:29;;;;;;;7.45;4.70;;;;;;;8.81;62.93;100875.38;1600964;89;26922;-69
2022/09/03 00:11:20;;;;;;;10.35;5.33;;;;;;;8.79;63.16;100877.55;1634241;85;25457;-68
2022/09/03 00:14:04;;;;;;;9.55;5.03;;;;;;;8.77;63.07;100871.64;1678925;85;28011;-68
2022/09/03 00:16:38;;;;;;;12.20;5.08;;;;;;;8.73;63.17;100870.58;1693937;84;25305;-68
2022/09/03 00:19:05;;;;;;;9.43;5.12;;;;;;;8.67;62.91;100873.07;1698122;84;25668;-70
2022/09/03 00:21:49;;;;;;;7.58;4.92;;;;;;;8.63;62.88;100881.45;1717341;83;25690;-69
2022/09/03 00:24:18;;;;;;;9.03;5.00;;;;;;;8.56;63.08;100876.37;1714244;83;25761;-69
2022/09/03 00:26:48;;;;;;;;;;;;;;;8.52;63.72;100873.98;1717716;83;27322;-70
2022/09/03 00:29:19;;;;;;;9.85;4.67;;;;;;;8.50;63.76;100878.86;1755854;80;25940;-69
2022/09/03 00:31:53;;;;;;;10.88;5.00;;;;;;;8.43;63.88;100876.47;1772395;80;25609;-69
2022/09/03 00:34:36;;;;;;;11.75;4.70;;;;;;;8.41;63.76;100880.77;1772914;80;25869;-68
2022/09/03 00:37:04;;;;;;;11.03;5.55;;;;;;;8.40;63.84;100877.00;1773345;80;25436;-69
2022/09/03 00:39:31;;;;;;;15.90;6.58;;;;;;;8.38;63.98;100876.48;1773228;80;29646;-69
2022/09/03 00:42:22;;;;;;;9.55;5.22;;;;;;;8.37;64.00;100872.16;1773165;80;25601;-69
2022/09/03 00:45:33;;;;;;;14.38;5.35;;;;;;;8.37;63.86;100868.91;1773303;80;25442;-70
2022/09/03 00:48:17;;;;;;;10.03;5.17;;;;;;;8.35;64.12;100872.98;1773309;80;25694;-68
2022/09/03 00:50:51;;;;;;;10.03;4.95;;;;;;;8.34;64.09;100875.41;1771637;80;25396;-69
2022/09/03 00:53:34;;;;;;;10.03;5.62;;;;;;;8.32;64.07;100874.34;1772216;80;27392;-69
2022/09/03 00:56:48;;;;;;;11.08;5.42;;;;;;;8.30;63.96;100877.06;1773188;80;25461;-69
2022/09/03 00:59:41;;;;;;;13.55;5.20;;;;;;;8.29;64.12;100876.27;1773300;80;25551;-69
2022/09/03 01:02:37;;;;;;;12.23;5.40;;;;;;;8.28;64.39;100876.55;1772930;80;25670;-69
2022/09/03 01:05:45;;;;;;;9.23;5.00;;;;;;;8.26;64.31;100877.34;1773349;80;25625;-68
2022/09/03 01:08:40;;;;;;;11.33;5.62;;;;;;;8.23;64.09;100877.37;1773275;80;27292;-69
2022/09/03 01:11:34;;;;;;;11.73;5.12;;;;;;;8.21;64.44;100884.94;1767753;80;25733;-69
2022/09/03 01:14:58;;;;;;;10.75;5.35;;;;;;;8.20;64.22;100872.53;1772672;80;25389;-67
2022/09/03 01:17:48;;;;;;;12.15;6.00;;;;;;;8.19;64.42;100885.20;1773246;80;25669;-68
2022/09/03 01:20:37;;;;;;;;;;;;;;;8.17;64.37;100881.99;1770619;80;25692;-68
2022/09/03 01:23:38;;;;;;;10.10;5.00;;;;;;;8.14;64.74;100874.46;1773334;80;27561;-67
2022/09/03 01:26:27;;;;;;;10.25;5.03;;;;;;;8.13;64.60;100879.57;1773236;80;25637;-68
2022/09/03 01:29:11;;;;;;;9.93;5.40;;;;;;;8.11;64.55;100876.36;1773532;80;25297;-68
2022/09/03 01:31:43;;;;;;;11.25;5.62;;;;;;;8.11;64.72;100876.91;1773019;80;25673;-69
2022/09/03 01:34:54;;;;;;;14.58;5.45;;;;;;;8.08;64.79;100874.77;1773183;80;25533;-68
2022/09/03 01:38:18;;;;;;;12.30;6.03;;;;;;;8.11;64.57;100877.70;1773214;80;27331;-68
2022/09/03 01:40:49;;;;;;;14.45;6.08;;;;;;;8.11;64.75;100874.22;1773121;80;25613;-70
2022/09/03 01:43:58;;;;;;;9.73;5.95;;;;;;;8.07;64.72;100880.70;1773377;80;25574;-68
2022/09/03 01:46:33;;;;;;;11.73;5.03;;;;;;;8.08;64.79;100874.21;1735851;82;25562;-68
2022/09/03 01:49:29;;;;;;;10.18;5.55;;;;;;;8.07;64.89;100878.53;1736000;82;25532;-69
2022/09/03 01:52:04;;;;;;;11.97;5.60;;;;;;;8.04;64.76;100880.70;1741357;82;27344;-69
2022/09/03 01:54:42;;;;;;;8.88;5.17;;;;;;;8.01;64.80;100875.86;1778377;80;25431;-69
2022/09/03 01:57:38;;;;;;;10.35;5.72;;;;;;;8.03;64.85;100875.59;1778265;80;25643;-69
2022/09/03 02:00:12;;;;;;;13.60;5.65;;;;;;;8.03;65.08;100875.59;1715879;83;26170;-69
2022/09/03 02:02:46;;;;;;;10.40;5.40;;;;;;;8.00;64.89;100865.36;1680200;84;25621;-69
2022/09/03 02:05:24;;;;;;;11.28;5.60;;;;;;;7.99;64.79;100870.50;1657145;85;27237;-69
2022/09/03 02:08:01;;;;;;;9.88;5.83;;;;;;;7.99;64.91;100863.77;1669647;85;25444;-68
2022/09/03 02:10:36;;;;;;;12.82;5.35;;;;;;;7.98;64.60;100868.33;1652649;85;25688;-69
2022/09/03 02:13:23;;;;;;;8.78;5.28;;;;;;;7.96;64.81;100860.27;1679626;85;25634;-69
2022/09/03 02:15:53;;;;;;;12.25;5.25;;;;;;;7.95;64.91;100863.52;1675484;85;25691;-69
2022/09/03 02:18:35;;;;;;;;;;;;;;;7.96;64.80;100860.27;1681803;85;27356;-69
2022/09/03 02:21:03;;;;;;;9.60;4.22;;;;;;;7.95;65.04;100860.00;1676351;85;25446;-68
2022/09/03 02:23:30;;;;;;;8.83;5.22;;;;;;;7.92;65.07;100857.88;1675414;85;25474;-69
2022/09/03 02:26:02;;;;;;;12.90;5.33;;;;;;;7.90;65.16;100863.55;1675361;85;25670;-68
2022/09/03 02:28:31;;;;;;;8.90;4.55;;;;;;;7.89;65.28;100856.53;1675446;85;25748;-68
2022/09/03 02:30:58;;;;;;;7.75;4.62;;;;;;;7.90;65.31;100855.98;1675710;85;28915;-68
2022/09/03 02:33:25;;;;;;;8.20;4.85;;;;;;;7.88;65.20;100850.87;1675332;85;25648;-68
2022/09/03 02:35:52;;;;;;;10.93;4.87;;;;;;;7.88;65.08;100851.42;1675410;85;25544;-68
2022/09/03 02:38:24;;;;;;;9.78;4.37;;;;;;;7.86;65.12;100853.84;1767091;80;26251;-68
2022/09/03 02:40:53;;;;;;;11.45;4.70;;;;;;;7.83;65.34;100856.28;1747320;81;25667;-67
2022/09/03 02:43:43;;;;;;;9.78;4.55;;;;;;;7.80;65.34;100857.66;1735623;82;27347;-68
2022/09/03 02:46:20;;;;;;;9.95;4.75;;;;;;;7.80;65.28;100860.34;1689598;84;25691;-68
2022/09/03 02:48:48;;;;;;;12.65;5.33;;;;;;;7.77;65.36;100861.44;1769056;81;25452;-71
2022/09/03 02:51:14;;;;;;;7.03;4.53;;;;;;;7.75;65.12;100859.57;1768984;81;25610;-68
2022/09/03 02:53:41;;;;;;;10.45;4.87;;;;;;;7.73;65.30;100858.50;1769043;80;25430;-68
2022/09/03 02:56:08;;;;;;;10.15;4.75;;;;;;;7.71;65.16;100859.29;1709831;83;27955;-68
2022/09/03 02:58:34;;;;;;;8.93;4.60;;;;;;;7.69;65.43;100857.97;1729765;83;25473;-69
2022/09/03 03:01:00;;;;;;;8.45;4.95;;;;;;;7.65;65.40;100852.34;1691600;84;25348;-68
2022/09/03 03:03:27;;;;;;;10.50;4.80;;;;;;;7.64;65.27;100855.58;1729825;82;25616;-68
2022/09/03 03:05:59;;;;;;;5.58;4.35;;;;;;;7.62;65.46;100847.49;1691644;84;25400;-68
2022/09/03 03:08:29;;;;;;;8.53;4.83;;;;;;;7.60;65.59;100849.11;1729843;83;27447;-68
2022/09/03 03:10:58;;;;;;;11.73;4.45;;;;;;;7.61;65.60;100848.05;1691548;84;25395;-68
2022/09/03 03:13:26;;;;;;;10.78;4.47;;;;;;;7.61;65.51;100849.91;1729980;83;25445;-68
2022/09/03 03:16:05;;;;;;;8.10;4.78;;;;;;;7.59;65.72;100843.45;1691885;84;26224;-68
2022/09/03 03:18:33;;;;;;;8.55;4.85;;;;;;;7.58;65.96;100846.45;1679872;84;25622;-69
2022/09/03 03:21:07;;;;;;;9.65;4.55;;;;;;;7.56;65.75;100852.10;1691612;84;27323;-68
2022/09/03 03:23:35;;;;;;;8.73;4.22;;;;;;;7.57;65.72;100851.55;1721632;82;25619;-68
2022/09/03 03:26:08;;;;;;;7.95;4.42;;;;;;;7.55;65.62;100851.83;1729891;82;25481;-68
2022/09/03 03:28:35;;;;;;;6.90;4.30;;;;;;;7.54;65.68;100854.23;1691088;83;25622;-68
2022/09/03 03:31:12;;;;;;;7.67;4.10;;;;;;;7.54;66.06;100854.78;1728726;81;25535;-68
2022/09/03 03:33:39;;;;;;;7.80;4.25;;;;;;;7.51;66.01;100858.02;1750320;81;27885;-68
2022/09/03 03:36:12;;;;;;;6.35;4.20;;;;;;;7.48;65.93;100854.01;1751888;81;25773;-69
2022/09/03 03:38:39;;;;;;;9.83;4.87;;;;;;;7.48;66.06;100859.39;1750505;81;25467;-68
2022/09/03 03:41:10;;;;;;;7.95;4.22;;;;;;;7.46;66.12;100861.55;1755974;81;26823;-68
2022/09/03 03:43:36;;;;;;;9.15;4.47;;;;;;;7.45;66.19;100860.73;1751689;81;25620;-68
2022/09/03 03:46:02;;;;;;;8.58;4.53;;;;;;;7.45;66.32;100863.42;1751998;80;27428;-70
2022/09/03 03:48:29;;;;;;;7.80;4.28;;;;;;;7.45;66.15;100870.15;1751940;81;27134;-70
2022/09/03 03:50:57;;;;;;;8.70;4.10;;;;;;;7.44;66.27;100871.25;1752003;81;29546;-69
2022/09/03 03:53:23;;;;;;;5.35;3.95;;;;;;;7.43;66.16;100873.66;1738544;81;25660;-70
2022/09/03 03:56:00;;;;;;;7.15;4.08;;;;;;;7.43;66.46;100875.01;1739180;81;25474;-70
2022/09/03 03:58:30;;;;;;;5.90;3.50;;;;;;;7.42;66.25;100870.72;1751939;81;27337;-68
2022/09/03 04:01:06;;;;;;;6.62;4.20;;;;;;;7.42;66.28;100870.72;1751855;81;25384;-68
2022/09/03 04:03:34;;;;;;;10.53;5.35;;;;;;;7.40;66.59;100878.78;1752037;81;25568;-69
2022/09/03 04:06:01;;;;;;;11.28;4.20;;;;;;;7.38;66.67;100880.41;1738973;80;25672;-68
2022/09/03 04:08:28;;;;;;;6.55;3.85;;;;;;;7.36;66.83;100871.80;1753232;81;25398;-68
2022/09/03 04:11:01;;;;;;;9.43;4.47;;;;;;;7.35;66.78;100874.77;1756014;81;27899;-68
2022/09/03 04:13:31;;;;;;;9.65;4.50;;;;;;;7.33;66.84;100872.34;1751926;81;25564;-68
2022/09/03 04:16:09;;;;;;;;;;;;;;;7.32;66.58;100878.82;1754260;80;25457;-68
2022/09/03 04:18:37;;;;;;;11.03;4.65;;;;;;;7.30;66.86;100879.61;1751442;81;25637;-68
2022/09/03 04:21:07;;;;;;;7.30;4.65;;;;;;;7.27;66.63;100882.32;1737612;81;25565;-68
2022/09/03 04:23:41;;;;;;;7.30;4.22;;;;;;;7.24;66.68;100882.86;1713811;81;27329;-69
2022/09/03 04:26:11;;;;;;;7.12;4.62;;;;;;;7.22;66.63;100880.16;1752028;81;25735;-69
2022/09/03 04:28:38;;;;;;;8.68;4.25;;;;;;;7.22;67.04;100885.02;1751994;81;25387;-68
2022/09/03 04:31:08;;;;;;;8.50;4.47;;;;;;;7.24;67.05;100886.09;1751912;81;25617;-68
2022/09/03 04:33:39;;;;;;;8.68;4.12;;;;;;;7.23;66.98;100887.96;1756181;81;25454;-68
2022/09/03 04:36:11;;;;;;;7.92;4.12;;;;;;;7.25;66.83;100891.73;1751993;81;27330;-68
2022/09/03 04:38:43;;;;;;;9.93;4.42;;;;;;;7.25;66.89;100893.90;1751968;81;25471;-68
2022/09/03 04:41:14;;;;;;;7.70;4.20;;;;;;;7.26;66.93;100897.39;1751928;81;25395;-68
2022/09/03 04:43:42;;;;;;;5.35;4.10;;;;;;;7.25;66.82;100898.45;1756116;81;26430;-69
2022/09/03 04:46:11;;;;;;;6.43;3.97;;;;;;;7.23;66.76;100895.23;1752242;81;25557;-68
2022/09/03 04:48:39;;;;;;;8.80;4.08;;;;;;;7.24;67.22;100898.20;1751990;81;27339;-68
2022/09/03 04:51:09;;;;;;;8.70;3.60;;;;;;;7.27;67.39;100894.95;1738934;81;25509;-68
2022/09/03 04:53:41;;;;;;;7.47;4.30;;;;;;;7.29;67.55;100899.55;1756048;81;25469;-68
2022/09/03 04:56:20;;;;;;;6.58;3.87;;;;;;;7.34;67.83;100896.02;1751054;81;25606;-68
2022/09/03 04:58:49;;;;;;;7.95;3.83;;;;;;;7.38;67.89;100895.20;1751969;81;25403;-68
2022/09/03 05:01:22;;;;;;;9.35;4.45;;;;;;;7.45;67.93;100894.92;1738949;81;27309;-68
2022/09/03 05:03:52;;;;;;;9.08;4.95;;;;;;;7.51;68.21;100899.23;1751873;81;25390;-68
2022/09/03 05:06:19;;;;;;;7.72;3.90;;;;;;;7.59;68.31;100898.64;1751911;81;25642;-68
2022/09/03 05:08:53;;;;;;;11.03;4.53;;;;;;;7.66;68.36;100899.70;1751858;81;26206;-68
2022/09/03 05:11:20;;;;;;;10.43;4.53;;;;;;;7.75;68.45;100902.11;1718423;83;25487;-68
2022/09/03 05:13:49;;;;;;;8.40;3.80;;;;;;;7.83;68.30;100897.51;1718342;83;28117;-69
2022/09/03 05:16:17;;;;;;;7.90;3.70;;;;;;;7.91;68.22;100897.46;1751820;81;25637;-68
2022/09/03 05:18:45;;;;;;;7.45;3.98;;;;;;;8.00;68.29;100905.77;1756004;81;25461;-68
2022/09/03 05:21:15;;;;;;;7.80;4.03;;;;;;;8.10;68.21;100906.27;1751855;81;25683;-69
2022/09/03 05:23:45;;;;;;;9.63;3.92;;;;;;;8.20;68.22;100905.66;1751952;81;25963;-68
2022/09/03 05:26:19;;;;;;;5.12;3.52;;;;;;;8.29;68.12;100906.44;1751909;81;27368;-68
2022/09/03 05:28:46;;;;;;;8.48;3.90;;;;;;;8.44;68.22;100913.11;1751644;81;25438;-69
2022/09/03 05:31:17;;;;;;;9.40;3.77;;;;;;;8.56;68.16;100917.64;1751955;81;25410;-69
2022/09/03 05:33:49;;;;;;;5.85;3.98;;;;;;;8.68;68.17;100917.81;1751974;81;26185;-69
2022/09/03 05:36:21;;;;;;;7.55;3.90;;;;;;;8.80;68.14;100918.26;1751975;81;25405;-69
2022/09/03 05:38:49;;;;;;;8.13;4.03;;;;;;;8.91;68.08;100918.45;1751940;81;27300;-69
2022/09/03 05:41:17;;;;;;;7.97;4.10;;;;;;;9.04;68.11;100921.05;1755892;81;25742;-69
2022/09/03 05:43:46;;;;;;;8.10;3.50;;;;;;;9.19;68.08;100919.30;1751902;81;25430;-68
2022/09/03 05:46:17;;;;;;;7.23;4.20;;;;;;;9.34;68.15;100916.45;1752122;81;25645;-69
2022/09/03 05:48:44;;;;;;;9.00;3.55;;;;;;;9.48;67.87;100914.70;1751942;81;25566;-69
2022/09/03 05:51:15;;;;;;;5.08;3.33;;;;;;;9.67;68.00;100917.47;1751901;81;27295;-70
2022/09/03 05:53:45;;;;;;;5.50;3.60;;;;;;;9.87;67.85;100911.55;1751837;81;25742;-69
2022/09/03 05:56:18;;;;;;;7.75;3.75;;;;;;;10.06;67.91;100908.35;1751945;81;25460;-68
2022/09/03 05:58:52;;;;;;;5.58;3.30;;;;;;;10.27;67.53;100917.54;1751920;81;25595;-69
2022/09/03 06:01:30;;;;;;;5.72;3.55;;;;;;;10.48;67.00;100917.28;1737512;81;25399;-69
2022/09/03 06:04:07;;;;;;;5.80;3.75;;;;;;;10.71;67.14;100917.75;1751566;81;27776;-69
2022/09/03 06:06:38;;;;;;;8.33;3.40;;;;;;;10.97;66.98;100920.84;1751288;81;26016;-69
2022/09/03 06:09:09;;;;;;;11.33;3.67;;;;;;;11.25;66.97;100916.05;1754494;81;25471;-69
2022/09/03 06:11:39;;;;;;;5.55;3.27;;;;;;;11.47;66.40;100906.69;1751872;81;25603;-69
2022/09/03 06:14:10;;;;;;;7.33;3.08;;;;;;;11.74;66.01;100914.03;1752094;81;25581;-69
2022/09/03 06:16:44;;;;;;;9.83;3.55;;;;;;;12.00;65.56;100912.73;1751931;81;28008;-69
2022/09/03 06:19:13;;;;;;;6.22;3.30;;;;;;;12.27;65.28;100911.33;1737493;81;25675;-69
2022/09/03 06:21:43;;;;;;;5.62;3.08;;;;;;;12.57;65.05;100913.68;1751849;81;25602;-68
2022/09/03 06:24:22;;;;;;;4.30;2.75;;;;;;;12.86;64.52;100913.25;1751822;81;25615;-68
2022/09/03 06:26:49;;;;;;;4.67;3.27;;;;;;;13.15;64.22;100908.71;1706777;82;25514;-70
2022/09/03 06:29:17;;;;;;;8.80;3.25;;;;;;;13.49;63.74;100911.39;1673320;84;27301;-69
2022/09/03 06:31:47;;;;;;;8.30;3.30;;;;;;;13.80;63.21;100907.81;1707042;84;25660;-69
2022/09/03 06:34:15;;;;;;;;;;;;;;;14.10;62.73;100904.77;1709495;84;25690;-69
2022/09/03 06:36:41;;;;;;;16.67;9.00;;;;;;;14.44;61.87;100907.83;1731655;82;25653;-69
2022/09/03 06:39:07;;;;;;;5.78;3.40;;;;;;;14.77;61.72;100912.26;1707028;84;25506;-69
2022/09/03 06:41:35;;;;;;;6.20;2.70;;;;;;;15.10;60.99;100904.36;1706929;84;27686;-69
2022/09/03 06:44:10;;;;;;;6.53;3.00;;;;;;;15.45;60.11;100915.13;1707082;83;25450;-69
2022/09/03 06:46:37;;;;;;;3.70;2.40;;;;;;;15.81;59.35;100913.09;1706517;84;25572;-70
2022/09/03 06:49:07;;;;;;;4.60;2.80;;;;;;;16.18;59.14;100909.26;1707069;84;25443;-70
2022/09/03 06:51:34;;;;;;;5.50;3.17;;;;;;;16.55;58.00;100911.62;1708781;81;25642;-70
2022/09/03 06:54:09;;;;;;;6.42;2.92;;;;;;;16.93;57.55;100904.39;1752017;81;27087;-69
2022/09/03 06:56:38;;;;;;;3.62;2.15;;;;;;;17.31;56.79;100907.43;1751941;81;25649;-69
2022/09/03 06:59:13;;;;;;;7.28;2.65;;;;;;;17.71;56.06;100912.26;1739579;81;25423;-70
2022/09/03 07:01:44;;;;;;;6.87;3.33;;;;;;;18.07;55.44;100908.70;1751930;81;25617;-69
2022/09/03 07:04:14;;;;;;;15.53;6.35;;;;;;;18.49;54.68;100913.07;1752047;81;25386;-70
2022/09/03 07:06:42;;;;;;;10.30;4.50;;;;;;;18.87;53.36;100910.42;1752048;81;27337;-70
2022/09/03 07:09:10;;;;;;;6.25;3.40;;;;;;;19.23;52.66;100908.03;1751908;81;25455;-70
2022/09/03 07:11:45;;;;;;;7.42;2.67;;;;;;;19.60;51.67;100915.22;1752115;81;25768;-70
2022/09/03 07:14:07;;;;;;;7.92;2.83;;;;;;;19.92;50.11;100911.87;1751552;81;25561;-70
2022/09/03 07:16:36;;;;;;;5.12;2.62;;;;;;;20.23;49.44;100911.57;1752040;81;25623;-70
2022/09/03 07:19:06;;;;;;;5.08;2.62;;;;;;;20.61;48.46;100914.11;1752118;81;27317;-70
2022/09/03 07:21:37;;;;;;;5.75;3.15;;;;;;;20.87;47.62;100907.98;1751884;81;25541;-69
2022/09/03 07:24:05;;;;;;;9.10;2.50;;;;;;;21.20;47.40;100906.59;1752040;81;25310;-70
2022/09/03 07:26:39;;;;;;;4.75;2.80;;;;;;;21.54;46.87;100912.86;1751980;81;25713;-71
2022/09/03 07:29:06;;;;;;;10.82;3.40;;;;;;;21.88;46.50;100915.17;1752032;81;25564;-70
2022/09/03 07:31:37;;;;;;;4.45;2.77;;;;;;;22.23;45.58;100915.45;1752010;81;27385;-70
2022/09/03 07:34:08;;;;;;;6.15;2.30;;;;;;;22.56;45.13;100914.72;1751960;81;25576;-69
2022/09/03 07:36:45;;;;;;;3.87;2.55;;;;;;;22.85;43.41;100913.66;1752031;81;25390;-69
2022/09/03 07:39:14;;;;;;;7.33;2.70;;;;;;;23.04;43.17;100919.56;1751639;81;25653;-70
2022/09/03 07:41:44;;;;;;;2.77;2.35;;;;;;;23.39;42.84;100921.08;1751957;81;25691;-70
2022/09/03 07:44:18;;;;;;;6.15;2.58;;;;;;;23.79;42.06;100923.56;1751978;81;29620;-70
2022/09/03 07:46:46;;;;;;;7.83;2.67;;;;;;;24.12;41.11;100923.78;1752019;81;25374;-70
2022/09/03 07:49:13;;;;;;;8.40;2.00;;;;;;;24.40;40.97;100921.77;1739887;81;25553;-69
2022/09/03 07:51:40;;;;;;;5.40;2.25;;;;;;;24.67;39.67;100914.56;1757449;80;25654;-69
2022/09/03 07:54:09;;;;;;;7.75;1.85;;;;;;;24.93;39.19;100914.84;1737784;81;25474;-70
2022/09/03 07:56:38;;;;;;;3.77;2.10;;;;;;;25.24;38.47;100915.27;1751957;81;28527;-70
2022/09/03 07:59:07;;;;;;;4.40;2.33;;;;;;;25.50;36.92;100909.95;1752027;81;25565;-70
2022/09/03 08:01:35;;;;;;;;;;;;;;;25.64;36.36;100911.91;1740225;81;25417;-69
2022/09/03 08:04:05;;;;;;;4.72;2.15;;;;;;;25.93;36.13;100904.94;1751969;81;26351;-69
2022/09/03 08:06:33;;;;;;;6.53;2.40;;;;;;;26.25;36.13;100905.64;1750271;81;25660;-70
2022/09/03 08:09:04;;;;;;;6.17;1.98;;;;;;;26.56;35.21;100912.05;1751929;81;27526;-70
2022/09/03 08:11:36;;;;;;;17.70;7.85;;;;;;;26.56;34.28;100912.86;1737828;81;25581;-69
2022/09/03 08:14:09;;;;;;;7.75;2.65;;;;;;;26.81;34.39;100910.56;1751570;81;25454;-70
2022/09/03 08:16:42;;;;;;;4.87;1.90;;;;;;;27.10;34.05;100912.55;1751895;81;25664;-69
2022/09/03 08:19:10;;;;;;;2.67;1.92;;;;;;;27.53;33.32;100912.23;1752008;81;25450;-68
2022/09/03 08:21:40;;;;;;;3.33;2.30;;;;;;;27.92;32.28;100920.01;1752209;81;27478;-69
2022/09/03 08:24:07;;;;;;;8.78;2.62;;;;;;;28.23;31.69;100923.65;1752021;81;25782;-69
2022/09/03 08:26:40;;;;;;;3.87;1.92;;;;;;;28.31;31.13;100916.77;1752066;81;25446;-69
2022/09/03 08:29:07;;;;;;;3.10;1.90;;;;;;;28.63;30.65;100914.82;1751983;81;25566;-69
2022/09/03 08:31:35;;;;;;;4.17;2.00;;;;;;;28.92;29.85;100915.19;1752048;81;25609;-69
2022/09/03 08:34:05;;;;;;;7.28;2.33;;;;;;;29.08;29.87;100910.36;1752132;81;27308;-69
2022/09/03 08:36:35;;;;;;;3.70;2.20;;;;;;;29.36;29.54;100914.72;1751940;81;25771;-69
2022/09/03 08:39:08;;;;;;;6.08;2.27;;;;;;;29.68;29.46;100905.61;1751983;81;25379;-69
2022/09/03 08:42:09;;;;;;;5.65;2.20;;;;;;;29.99;28.54;100901.45;1751966;81;26208;-70
2022/09/03 08:44:49;;;;;;;6.90;2.60;;;;;;;30.20;28.32;100897.27;1751903;81;25419;-70
2022/09/03 08:47:42;;;;;;;2.20;2.00;;;;;;;30.54;27.83;100896.34;1751944;81;27331;-69
2022/09/03 08:50:25;;;;;;;3.55;1.70;;;;;;;30.83;26.98;100897.09;1751833;81;25556;-69
2022/09/03 08:53:03;;;;;;;2.72;1.90;;;;;;;30.70;25.70;100897.63;1751980;81;25540;-69
2022/09/03 08:55:43;;;;;;;6.33;1.80;;;;;;;30.51;25.65;100895.84;1751843;81;26113;-69
2022/09/03 08:58:17;;;;;;;3.42;1.40;;;;;;;30.37;24.95;100889.16;1751334;81;25156;-69
2022/09/03 09:01:10;;;;;;;4.53;1.98;;;;;;;30.39;24.82;100887.33;1751988;81;27343;-70
2022/09/03 09:04:05;;;;;;;3.27;1.65;;;;;;;30.41;24.60;100889.08;1751838;81;25438;-70
2022/09/03 09:07:13;;;;;;;2.50;1.80;;;;;;;30.10;24.16;100890.08;1752121;81;25530;-69
2022/09/03 09:10:02;;;;;;;;;;;;;;;30.10;24.16;100890.08;1754493;81;26131;-70
2022/09/03 09:12:34;;;;;;;2.70;1.95;;;;;;;29.96;23.24;100882.01;1752159;80;25436;-70
2022/09/03 09:15:25;;;;;;;3.75;2.02;;;;;;;29.64;23.44;100875.62;1751481;81;27332;-70
2022/09/03 09:18:08;;;;;;;3.17;1.92;;;;;;;29.62;23.37;100883.80;1706918;83;25827;-70
2022/09/03 09:20:59;;;;;;;3.55;1.80;;;;;;;29.85;23.87;100881.42;1707259;84;25478;-70
2022/09/03 09:23:45;;;;;;;2.55;1.80;;;;;;;30.16;23.34;100866.67;1639455;87;25695;-69
2022/09/03 09:26:16;;;;;;;3.70;1.98;;;;;;;30.55;23.03;100873.43;1656047;86;25473;-70
2022/09/03 09:28:48;;;;;;;6.72;2.40;;;;;;;30.95;23.04;100876.10;1707250;84;27295;-71
2022/09/03 09:31:17;;;;;;;2.45;1.60;;;;;;;31.29;22.60;100876.26;1673122;85;25560;-69
2022/09/03 09:33:45;;;;;;;4.17;2.05;;;;;;;31.43;22.23;100879.29;1707334;84;25669;-69
2022/09/03 09:36:15;;;;;;;4.42;1.98;;;;;;;31.49;22.04;100878.16;1707381;84;25629;-69
2022/09/03 09:38:46;;;;;;;2.67;2.30;;;;;;;31.69;22.09;100869.64;1707313;84;25671;-70
2022/09/03 09:41:18;;;;;;;3.95;2.75;;;;;;;31.99;21.26;100880.99;1711036;82;27316;-70
2022/09/03 09:43:49;;;;;;;4.47;2.77;;;;;;;31.84;20.32;100884.20;1682019;84;25636;-70
2022/09/03 09:46:22;;;;;;;2.90;2.17;;;;;;;31.58;21.03;100881.13;1707208;84;25430;-70
2022/09/03 09:48:57;;;;;;;5.65;3.10;;;;;;;31.65;20.68;100870.55;1673043;85;25724;-70
2022/09/03 09:51:30;;;;;;;2.30;2.10;;;;;;;31.81;21.07;100869.70;1707273;84;25718;-69
2022/09/03 09:54:19;;;;;;;1.77;1.60;;;;;;;32.53;20.60;100865.44;1722772;81;28016;-71
2022/09/03 09:56:48;;;;;;;3.27;2.20;;;;;;;32.53;20.60;100865.44;1714370;81;25613;-70
2022/09/03 09:59:17;;;;;;;2.98;2.20;;;;;;;32.93;20.01;100871.38;1751068;81;25821;-70
2022/09/03 10:01:44;;;;;;;;;;;;;;;33.05;19.96;100871.80;1741663;81;25958;-70
2022/09/03 10:04:28;;;;;;;3.25;2.12;;;;;;;33.15;19.62;100865.08;1752033;81;25566;-70
2022/09/03 10:07:04;;;;;;;2.22;1.40;;;;;;;33.36;19.67;100860.77;1737861;81;27772;-70
2022/09/03 10:09:33;;;;;;;2.45;1.67;;;;;;;33.62;19.40;100865.65;1748473;81;25722;-70
2022/09/03 10:12:25;;;;;;;3.27;1.50;;;;;;;33.64;19.17;100867.37;1752185;81;32352;-70
2022/09/03 10:15:06;;;;;;;1.45;1.30;;;;;;;33.60;18.73;100867.36;1752146;81;25654;-69
2022/09/03 10:18:02;;;;;;;5.75;1.60;;;;;;;33.57;18.69;100880.87;1752228;81;25455;-70
2022/09/03 10:20:43;;;;;;;2.12;1.30;;;;;;;33.72;18.75;100875.58;1752181;81;28004;-70
2022/09/03 10:23:27;;;;;;;3.85;1.20;;;;;;;34.06;18.52;100871.27;1751990;81;25563;-71
2022/09/03 10:26:06;;;;;;;3.37;1.50;;;;;;;34.07;18.18;100869.24;1752276;81;25418;-71
2022/09/03 10:28:40;;;;;;;1.72;1.52;;;;;;;33.99;17.91;100865.17;1752120;81;25608;-71
2022/09/03 10:31:37;;;;;;;1.35;1.10;;;;;;;34.02;18.03;100856.61;1752135;81;25410;-72
2022/09/03 10:34:32;;;;;;;2.30;1.10;;;;;;;34.04;17.83;100851.95;1752220;81;27518;-69
2022/09/03 10:37:23;;;;;;;3.15;1.30;;;;;;;34.26;17.71;100856.75;1751770;81;25435;-70
2022/09/03 10:40:31;;;;;;;1.95;1.20;;;;;;;34.38;17.64;100853.86;1751681;81;25401;-70
2022/09/03 10:43:40;;;;;;;1.60;1.07;;;;;;;34.42;17.14;100844.66;1752079;81;25615;-70
2022/09/03 10:46:18;;;;;;;0.98;0.95;;;;;;;34.34;17.24;100844.00;1752203;81;25391;-70
2022/09/03 10:49:22;;;;;;;2.25;1.60;;;;;;;34.04;16.92;100840.09;1752288;81;27306;-70
2022/09/03 10:52:08;;;;;;;1.55;1.07;;;;;;;33.67;17.10;100847.46;1751290;81;25392;-68
2022/09/03 10:55:05;;;;;;;3.15;1.67;;;;;;;33.69;17.32;100841.58;1751973;81;25441;-70
2022/09/03 10:57:46;;;;;;;2.15;1.12;;;;;;;33.99;17.50;100839.91;1751327;81;25622;-75
2022/09/03 11:00:17;;;;;;;1.57;1.10;;;;;;;33.83;16.94;100838.08;1752130;81;25586;-69
2022/09/03 11:02:58;;;;;;;1.77;0.78;;;;;;;33.93;17.17;100828.48;1752077;81;27315;-71
2022/09/03 11:05:37;;;;;;;2.08;1.07;;;;;;;34.08;16.73;100823.11;1752034;81;25600;-70
2022/09/03 11:08:27;;;;;;;3.58;0.90;;;;;;;33.94;16.32;100824.45;1752077;81;25425;-70
2022/09/03 11:11:08;;;;;;;1.70;0.98;;;;;;;33.57;16.44;100836.02;1752009;81;25673;-69
2022/09/03 11:13:53;;;;;;;3.80;1.17;;;;;;;33.49;16.98;100828.47;1752173;81;25598;-69
2022/09/03 11:16:31;;;;;;;0.78;0.78;;;;;;;33.47;16.99;100826.74;1751843;81;27322;-70
2022/09/03 11:19:04;;;;;;;1.70;0.90;;;;;;;33.27;16.91;100820.03;1752090;81;25423;-70
2022/09/03 11:21:34;;;;;;;0.72;0.62;;;;;;;33.20;16.98;100817.48;1752006;81;25337;-70
2022/09/03 11:24:17;;;;;;;2.42;0.93;;;;;;;33.04;16.77;100812.81;1752013;81;25801;-71
2022/09/03 11:27:06;;;;;;;3.20;0.80;;;;;;;32.88;16.97;100810.33;1752000;81;25633;-69
2022/09/03 11:29:47;;;;;;;2.22;0.90;;;;;;;32.93;17.47;100807.55;1751766;81;27391;-69
2022/09/03 11:32:32;;;;;;;2.17;0.78;;;;;;;33.08;17.30;100813.45;1747688;81;25394;-71
2022/09/03 11:34:58;;;;;;;2.60;1.12;;;;;;;33.20;17.54;100812.66;1751079;81;25382;-71
2022/09/03 11:37:29;;;;;;;1.32;1.00;;;;;;;33.33;17.19;100815.42;1752091;81;25582;-70
2022/09/03 11:40:07;;;;;;;2.62;1.00;;;;;;;33.17;16.88;100808.58;1752043;81;25430;-70
2022/09/03 11:42:41;;;;;;;3.15;1.00;;;;;;;33.30;17.18;100801.69;1751986;81;27434;-70
2022/09/03 11:45:31;;;;;;;2.47;1.00;;;;;;;33.72;17.21;100801.25;1751954;81;25558;-70
2022/09/03 11:47:58;;;;;;;1.92;0.85;;;;;;;34.02;16.77;100808.11;1752041;81;25587;-71
2022/09/03 11:50:29;;;;;;;4.40;1.20;;;;;;;34.08;16.31;100809.09;1738536;81;25569;-68
2022/09/03 11:53:19;;;;;;;2.00;1.12;;;;;;;33.82;16.45;100798.67;1751701;81;25384;-69
2022/09/03 11:55:58;;;;;;;2.42;1.00;;;;;;;33.69;16.49;100803.71;1752110;81;28197;-70
2022/09/03 11:58:31;;;;;;;1.22;1.00;;;;;;;33.16;16.53;100818.24;1750478;81;25773;-69
2022/09/03 12:01:01;;;;;;;9.33;1.90;;;;;;;33.19;16.84;100806.13;1752030;81;25456;-70
2022/09/03 12:03:41;;;;;;;4.40;1.17;;;;;;;33.57;16.85;100799.56;1751882;81;27823;-68
2022/09/03 12:06:21;;;;;;;3.27;1.17;;;;;;;33.88;16.70;100794.01;1751989;81;25403;-69
2022/09/03 12:09:14;;;;;;;1.70;1.20;;;;;;;33.84;16.49;100788.53;1752058;81;27327;-70